Main page
METAR-TAF:

METAR-TAF

Airports :

Ottawa Municipal Airport

Ottawa, Kansas, United States

latitude: 38-32-20N, longitude: 095-15-10W, elevation: 968 ft

Current weather observation

The report was made 8 minutes ago, at 04:55 UTC
Wind 15 mph from the South
Temperature 57°F
Humidity 51%
Pressure 29.87 in. Hg
Clear sky

METAR: KOWI 230455Z AUTO 18013KT CLR 14/04 A2987 RMK AO2

Time: 00:03 (05:03 UTC)


TAF: missing

Weather observations and forecasts of more than 4000 airports (METAR and TAF reports).

The available stations are represented by yellow and red dots on the map.

Hover mouse over dot to see the name of the station.

Then click to see weather observations and forecasts.

To change the map : click on the green buttons with a black cross to zoom in, on the green button with a dash to zoom out, or on the green arrows for adjacent maps.


METAR-TAF: